sensor_id;sensor_type;location;lat;lon;timestamp;temperature;humidity
10051;DHT22;5065;46.942;7.432;2023-02-01T00:02:28;5.30;99.90
10051;DHT22;5065;46.942;7.432;2023-02-01T00:04:55;5.30;99.90
10051;DHT22;5065;46.942;7.432;2023-02-01T00:07:22;5.30;99.90
10051;DHT22;5065;46.942;7.432;2023-02-01T00:09:49;5.40;99.90
10051;DHT22;5065;46.942;7.432;2023-02-01T00:12:16;5.40;99.90
10051;DHT22;5065;46.942;7.432;2023-02-01T00:14:43;5.30;99.90
10051;DHT22;5065;46.942;7.432;2023-02-01T00:17:11;5.30;99.90
10051;DHT22;5065;46.942;7.432;2023-02-01T00:19:39;5.30;99.90
10051;DHT22;5065;46.942;7.432;2023-02-01T00:22:06;5.20;99.90
10051;DHT22;5065;46.942;7.432;2023-02-01T00:24:33;5.30;99.90
10051;DHT22;5065;46.942;7.432;2023-02-01T00:27:01;5.30;99.90
10051;DHT22;5065;46.942;7.432;2023-02-01T00:29:28;5.30;99.90
10051;DHT22;5065;46.942;7.432;2023-02-01T00:31:56;5.30;99.90
10051;DHT22;5065;46.942;7.432;2023-02-01T00:34:23;5.40;99.90
10051;DHT22;5065;46.942;7.432;2023-02-01T00:36:51;5.40;99.90
10051;DHT22;5065;46.942;7.432;2023-02-01T00:39:19;5.30;99.90
10051;DHT22;5065;46.942;7.432;2023-02-01T00:41:46;5.40;99.90
10051;DHT22;5065;46.942;7.432;2023-02-01T00:44:13;5.40;99.90
10051;DHT22;5065;46.942;7.432;2023-02-01T00:46:40;5.40;99.90
10051;DHT22;5065;46.942;7.432;2023-02-01T00:49:09;5.30;99.90
10051;DHT22;5065;46.942;7.432;2023-02-01T00:51:36;5.30;99.90
10051;DHT22;5065;46.942;7.432;2023-02-01T00:54:05;5.20;99.90
10051;DHT22;5065;46.942;7.432;2023-02-01T00:56:33;5.20;99.90
10051;DHT22;5065;46.942;7.432;2023-02-01T00:59:00;5.10;99.90
10051;DHT22;5065;46.942;7.432;2023-02-01T01:01:28;5.00;99.90
10051;DHT22;5065;46.942;7.432;2023-02-01T01:03:57;4.90;99.90
10051;DHT22;5065;46.942;7.432;2023-02-01T01:06:27;4.80;99.90
10051;DHT22;5065;46.942;7.432;2023-02-01T01:08:56;4.80;99.90
10051;DHT22;5065;46.942;7.432;2023-02-01T01:11:27;4.70;99.90
10051;DHT22;5065;46.942;7.432;2023-02-01T01:13:56;4.70;99.90
10051;DHT22;5065;46.942;7.432;2023-02-01T01:16:26;4.60;99.90
10051;DHT22;5065;46.942;7.432;2023-02-01T01:18:53;4.60;99.90
10051;DHT22;5065;46.942;7.432;2023-02-01T01:21:21;4.50;99.90
10051;DHT22;5065;46.942;7.432;2023-02-01T01:23:48;4.40;99.90
10051;DHT22;5065;46.942;7.432;2023-02-01T01:26:17;4.40;99.90
10051;DHT22;5065;46.942;7.432;2023-02-01T01:28:47;4.40;99.90
10051;DHT22;5065;46.942;7.432;2023-02-01T01:31:15;4.40;99.90
10051;DHT22;5065;46.942;7.432;2023-02-01T01:33:43;4.30;99.90
10051;DHT22;5065;46.942;7.432;2023-02-01T01:36:11;4.30;99.90
10051;DHT22;5065;46.942;7.432;2023-02-01T01:38:39;4.30;99.90
10051;DHT22;5065;46.942;7.432;2023-02-01T01:41:07;4.40;99.90
10051;DHT22;5065;46.942;7.432;2023-02-01T01:43:53;4.40;99.90
10051;DHT22;5065;46.942;7.432;2023-02-01T01:46:23;4.40;99.90
10051;DHT22;5065;46.942;7.432;2023-02-01T01:48:57;4.30;99.90
10051;DHT22;5065;46.942;7.432;2023-02-01T01:51:26;4.20;99.90
10051;DHT22;5065;46.942;7.432;2023-02-01T01:54:00;4.10;99.90
10051;DHT22;5065;46.942;7.432;2023-02-01T01:56:29;4.00;99.90
10051;DHT22;5065;46.942;7.432;2023-02-01T01:58:58;4.00;99.90
10051;DHT22;5065;46.942;7.432;2023-02-01T02:01:27;4.00;99.90
10051;DHT22;5065;46.942;7.432;2023-02-01T02:03:55;4.00;99.90
10051;DHT22;5065;46.942;7.432;2023-02-01T02:06:31;4.00;99.90
10051;DHT22;5065;46.942;7.432;2023-02-01T02:08:59;4.10;99.90
10051;DHT22;5065;46.942;7.432;2023-02-01T02:11:27;4.10;99.90
10051;DHT22;5065;46.942;7.432;2023-02-01T02:13:55;4.00;99.90
10051;DHT22;5065;46.942;7.432;2023-02-01T02:22:57;3.80;99.90
10051;DHT22;5065;46.942;7.432;2023-02-01T02:25:56;3.80;99.90
10051;DHT22;5065;46.942;7.432;2023-02-01T02:28:57;3.80;99.90
10051;DHT22;5065;46.942;7.432;2023-02-01T02:34:30;3.80;99.90
10051;DHT22;5065;46.942;7.432;2023-02-01T02:37:06;3.80;99.90
10051;DHT22;5065;46.942;7.432;2023-02-01T02:39:45;3.80;99.90
10051;DHT22;5065;46.942;7.432;2023-02-01T02:42:21;3.70;99.90
10051;DHT22;5065;46.942;7.432;2023-02-01T02:45:14;3.70;99.90
10051;DHT22;5065;46.942;7.432;2023-02-01T02:48:09;3.70;99.90
10051;DHT22;5065;46.942;7.432;2023-02-01T02:50:43;3.70;99.90
10051;DHT22;5065;46.942;7.432;2023-02-01T02:53:34;3.80;99.90
10051;DHT22;5065;46.942;7.432;2023-02-01T02:56:26;3.80;99.90
10051;DHT22;5065;46.942;7.432;2023-02-01T02:59:14;3.70;99.90
10051;DHT22;5065;46.942;7.432;2023-02-01T03:02:00;3.60;99.90
10051;DHT22;5065;46.942;7.432;2023-02-01T03:04:44;3.60;99.90
10051;DHT22;5065;46.942;7.432;2023-02-01T03:10:26;3.50;99.90
10051;DHT22;5065;46.942;7.432;2023-02-01T03:13:02;3.50;99.90
10051;DHT22;5065;46.942;7.432;2023-02-01T03:15:34;3.50;99.90
10051;DHT22;5065;46.942;7.432;2023-02-01T03:18:06;3.50;99.90
10051;DHT22;5065;46.942;7.432;2023-02-01T03:20:38;3.50;99.90
10051;DHT22;5065;46.942;7.432;2023-02-01T03:23:10;3.60;99.90
10051;DHT22;5065;46.942;7.432;2023-02-01T03:25:38;3.60;99.90
10051;DHT22;5065;46.942;7.432;2023-02-01T03:28:08;3.70;99.90
10051;DHT22;5065;46.942;7.432;2023-02-01T03:30:38;3.70;99.90
10051;DHT22;5065;46.942;7.432;2023-02-01T03:33:11;3.70;99.90
10051;DHT22;5065;46.942;7.432;2023-02-01T03:35:57;3.70;99.90
10051;DHT22;5065;46.942;7.432;2023-02-01T03:38:31;3.60;99.90
10051;DHT22;5065;46.942;7.432;2023-02-01T03:41:06;3.60;99.90
10051;DHT22;5065;46.942;7.432;2023-02-01T03:43:44;3.60;99.90
10051;DHT22;5065;46.942;7.432;2023-02-01T03:46:17;3.60;99.90
10051;DHT22;5065;46.942;7.432;2023-02-01T03:48:46;3.60;99.90
10051;DHT22;5065;46.942;7.432;2023-02-01T03:51:14;3.60;99.90
10051;DHT22;5065;46.942;7.432;2023-02-01T03:53:46;3.60;99.90
10051;DHT22;5065;46.942;7.432;2023-02-01T03:56:15;3.50;99.90
10051;DHT22;5065;46.942;7.432;2023-02-01T03:58:44;3.50;99.90
10051;DHT22;5065;46.942;7.432;2023-02-01T04:01:24;3.40;99.90
10051;DHT22;5065;46.942;7.432;2023-02-01T04:03:51;3.40;99.90
10051;DHT22;5065;46.942;7.432;2023-02-01T04:06:19;3.40;99.90
10051;DHT22;5065;46.942;7.432;2023-02-01T04:08:47;3.40;99.90
10051;DHT22;5065;46.942;7.432;2023-02-01T04:11:15;3.40;99.90
10051;DHT22;5065;46.942;7.432;2023-02-01T04:13:42;3.30;99.90
10051;DHT22;5065;46.942;7.432;2023-02-01T04:16:10;3.30;99.90
10051;DHT22;5065;46.942;7.432;2023-02-01T04:18:37;3.20;99.90
10051;DHT22;5065;46.942;7.432;2023-02-01T04:21:05;3.20;99.90
10051;DHT22;5065;46.942;7.432;2023-02-01T04:23:32;3.20;99.90
10051;DHT22;5065;46.942;7.432;2023-02-01T04:26:01;3.20;99.90
10051;DHT22;5065;46.942;7.432;2023-02-01T04:28:29;3.20;99.90
10051;DHT22;5065;46.942;7.432;2023-02-01T04:30:57;3.20;99.90
10051;DHT22;5065;46.942;7.432;2023-02-01T04:33:24;3.20;99.90
10051;DHT22;5065;46.942;7.432;2023-02-01T04:35:51;3.10;99.90
10051;DHT22;5065;46.942;7.432;2023-02-01T04:38:18;3.20;99.90
10051;DHT22;5065;46.942;7.432;2023-02-01T04:40:47;3.20;99.90
10051;DHT22;5065;46.942;7.432;2023-02-01T04:43:17;3.20;99.90
10051;DHT22;5065;46.942;7.432;2023-02-01T04:45:47;3.20;99.90
10051;DHT22;5065;46.942;7.432;2023-02-01T04:48:15;3.20;99.90
10051;DHT22;5065;46.942;7.432;2023-02-01T04:50:43;3.10;99.90
10051;DHT22;5065;46.942;7.432;2023-02-01T04:53:13;3.10;99.90
10051;DHT22;5065;46.942;7.432;2023-02-01T04:55:41;3.10;99.90
10051;DHT22;5065;46.942;7.432;2023-02-01T04:58:08;3.10;99.90
10051;DHT22;5065;46.942;7.432;2023-02-01T05:00:37;3.10;99.90
10051;DHT22;5065;46.942;7.432;2023-02-01T05:03:05;3.10;99.90
10051;DHT22;5065;46.942;7.432;2023-02-01T05:05:32;3.00;99.90
10051;DHT22;5065;46.942;7.432;2023-02-01T05:07:59;3.00;99.90
10051;DHT22;5065;46.942;7.432;2023-02-01T05:10:26;2.90;99.90
10051;DHT22;5065;46.942;7.432;2023-02-01T05:12:54;2.80;99.90
10051;DHT22;5065;46.942;7.432;2023-02-01T05:15:40;2.80;99.90
10051;DHT22;5065;46.942;7.432;2023-02-01T05:18:07;2.90;99.90
10051;DHT22;5065;46.942;7.432;2023-02-01T05:20:34;2.90;99.90
10051;DHT22;5065;46.942;7.432;2023-02-01T05:23:01;2.90;99.90
10051;DHT22;5065;46.942;7.432;2023-02-01T05:25:28;2.90;99.90
10051;DHT22;5065;46.942;7.432;2023-02-01T05:27:55;2.90;99.90
10051;DHT22;5065;46.942;7.432;2023-02-01T05:30:22;2.80;99.90
10051;DHT22;5065;46.942;7.432;2023-02-01T05:32:51;2.80;99.90
10051;DHT22;5065;46.942;7.432;2023-02-01T05:35:19;2.70;99.90
10051;DHT22;5065;46.942;7.432;2023-02-01T05:37:46;2.70;99.90
10051;DHT22;5065;46.942;7.432;2023-02-01T05:40:14;2.70;99.90
10051;DHT22;5065;46.942;7.432;2023-02-01T05:42:41;2.70;99.90
10051;DHT22;5065;46.942;7.432;2023-02-01T05:45:09;2.80;99.90
10051;DHT22;5065;46.942;7.432;2023-02-01T05:47:36;2.90;99.90
10051;DHT22;5065;46.942;7.432;2023-02-01T05:50:06;2.90;99.90
10051;DHT22;5065;46.942;7.432;2023-02-01T05:52:33;2.80;99.90
10051;DHT22;5065;46.942;7.432;2023-02-01T05:55:01;2.80;99.90
10051;DHT22;5065;46.942;7.432;2023-02-01T05:57:28;2.80;99.90
10051;DHT22;5065;46.942;7.432;2023-02-01T05:59:55;2.80;99.90
10051;DHT22;5065;46.942;7.432;2023-02-01T06:02:22;2.80;99.90
10051;DHT22;5065;46.942;7.432;2023-02-01T06:04:50;2.90;99.90
10051;DHT22;5065;46.942;7.432;2023-02-01T06:07:19;2.90;99.90
10051;DHT22;5065;46.942;7.432;2023-02-01T06:09:46;2.90;99.90
10051;DHT22;5065;46.942;7.432;2023-02-01T06:12:13;2.90;99.90
10051;DHT22;5065;46.942;7.432;2023-02-01T06:14:40;2.90;99.90
10051;DHT22;5065;46.942;7.432;2023-02-01T06:17:09;2.90;99.90
10051;DHT22;5065;46.942;7.432;2023-02-01T06:19:36;2.90;99.90
10051;DHT22;5065;46.942;7.432;2023-02-01T06:22:03;3.00;99.90
10051;DHT22;5065;46.942;7.432;2023-02-01T06:24:33;3.00;99.90
10051;DHT22;5065;46.942;7.432;2023-02-01T06:27:00;3.00;99.90
10051;DHT22;5065;46.942;7.432;2023-02-01T06:29:27;3.00;99.90
10051;DHT22;5065;46.942;7.432;2023-02-01T06:31:55;3.00;99.90
10051;DHT22;5065;46.942;7.432;2023-02-01T06:34:22;2.90;99.90
10051;DHT22;5065;46.942;7.432;2023-02-01T06:36:50;2.90;99.90
10051;DHT22;5065;46.942;7.432;2023-02-01T06:39:17;2.90;99.90
10051;DHT22;5065;46.942;7.432;2023-02-01T06:41:47;2.80;99.90
10051;DHT22;5065;46.942;7.432;2023-02-01T06:44:16;2.90;99.90
10051;DHT22;5065;46.942;7.432;2023-02-01T06:46:43;2.90;99.90
10051;DHT22;5065;46.942;7.432;2023-02-01T06:49:10;2.90;99.90
10051;DHT22;5065;46.942;7.432;2023-02-01T06:51:37;2.80;99.90
10051;DHT22;5065;46.942;7.432;2023-02-01T06:54:05;2.80;99.90
10051;DHT22;5065;46.942;7.432;2023-02-01T06:56:32;2.80;99.90
10051;DHT22;5065;46.942;7.432;2023-02-01T06:59:03;2.80;99.90
10051;DHT22;5065;46.942;7.432;2023-02-01T07:01:30;2.80;99.90
10051;DHT22;5065;46.942;7.432;2023-02-01T07:04:00;2.90;99.90
10051;DHT22;5065;46.942;7.432;2023-02-01T07:06:28;2.90;99.90
10051;DHT22;5065;46.942;7.432;2023-02-01T07:08:55;2.90;99.90
10051;DHT22;5065;46.942;7.432;2023-02-01T07:11:24;2.90;99.90
10051;DHT22;5065;46.942;7.432;2023-02-01T07:13:53;2.90;99.90
10051;DHT22;5065;46.942;7.432;2023-02-01T07:16:22;2.90;99.90
10051;DHT22;5065;46.942;7.432;2023-02-01T07:18:50;2.90;99.90
10051;DHT22;5065;46.942;7.432;2023-02-01T07:21:18;2.90;99.90
10051;DHT22;5065;46.942;7.432;2023-02-01T07:23:46;2.90;99.90
10051;DHT22;5065;46.942;7.432;2023-02-01T07:26:14;2.80;99.90
10051;DHT22;5065;46.942;7.432;2023-02-01T07:28:42;2.80;99.90
10051;DHT22;5065;46.942;7.432;2023-02-01T07:31:11;2.90;99.90
10051;DHT22;5065;46.942;7.432;2023-02-01T07:33:40;2.90;99.90
10051;DHT22;5065;46.942;7.432;2023-02-01T07:36:11;2.90;99.90
10051;DHT22;5065;46.942;7.432;2023-02-01T07:38:39;2.80;99.90
10051;DHT22;5065;46.942;7.432;2023-02-01T07:41:06;2.90;99.90
10051;DHT22;5065;46.942;7.432;2023-02-01T07:43:34;3.00;99.90
10051;DHT22;5065;46.942;7.432;2023-02-01T07:46:02;3.10;99.90
10051;DHT22;5065;46.942;7.432;2023-02-01T07:48:31;3.10;99.90
10051;DHT22;5065;46.942;7.432;2023-02-01T07:51:02;3.20;99.90
10051;DHT22;5065;46.942;7.432;2023-02-01T07:53:30;3.20;99.90
10051;DHT22;5065;46.942;7.432;2023-02-01T07:55:58;3.30;99.90
10051;DHT22;5065;46.942;7.432;2023-02-01T07:58:26;3.20;99.90
10051;DHT22;5065;46.942;7.432;2023-02-01T08:00:54;3.30;99.90
10051;DHT22;5065;46.942;7.432;2023-02-01T08:03:39;3.30;99.90
10051;DHT22;5065;46.942;7.432;2023-02-01T08:06:08;3.20;99.90
10051;DHT22;5065;46.942;7.432;2023-02-01T08:08:35;3.30;99.90
10051;DHT22;5065;46.942;7.432;2023-02-01T08:11:04;3.30;99.90
10051;DHT22;5065;46.942;7.432;2023-02-01T08:13:33;3.30;99.90
10051;DHT22;5065;46.942;7.432;2023-02-01T08:16:02;3.40;99.90
10051;DHT22;5065;46.942;7.432;2023-02-01T08:18:30;3.30;99.90
10051;DHT22;5065;46.942;7.432;2023-02-01T08:21:01;3.30;99.90
10051;DHT22;5065;46.942;7.432;2023-02-01T08:23:30;3.30;99.90
10051;DHT22;5065;46.942;7.432;2023-02-01T08:26:07;3.30;99.90
10051;DHT22;5065;46.942;7.432;2023-02-01T08:28:35;3.30;99.90
10051;DHT22;5065;46.942;7.432;2023-02-01T08:31:05;3.20;99.90
10051;DHT22;5065;46.942;7.432;2023-02-01T08:33:32;3.30;99.90
10051;DHT22;5065;46.942;7.432;2023-02-01T08:36:03;3.50;99.90
10051;DHT22;5065;46.942;7.432;2023-02-01T08:38:32;3.60;99.90
10051;DHT22;5065;46.942;7.432;2023-02-01T08:41:04;3.80;99.90
10051;DHT22;5065;46.942;7.432;2023-02-01T08:43:32;3.80;99.90
10051;DHT22;5065;46.942;7.432;2023-02-01T08:45:59;3.80;99.90
10051;DHT22;5065;46.942;7.432;2023-02-01T08:48:26;3.80;99.90
10051;DHT22;5065;46.942;7.432;2023-02-01T08:50:53;3.90;99.90
10051;DHT22;5065;46.942;7.432;2023-02-01T08:53:20;3.90;99.90
10051;DHT22;5065;46.942;7.432;2023-02-01T08:55:49;3.80;99.90
10051;DHT22;5065;46.942;7.432;2023-02-01T08:58:16;3.90;99.90
10051;DHT22;5065;46.942;7.432;2023-02-01T09:00:45;3.90;99.90
10051;DHT22;5065;46.942;7.432;2023-02-01T09:03:13;4.00;99.90
10051;DHT22;5065;46.942;7.432;2023-02-01T09:05:41;4.10;99.90
10051;DHT22;5065;46.942;7.432;2023-02-01T09:08:09;4.10;99.90
10051;DHT22;5065;46.942;7.432;2023-02-01T09:10:38;4.20;99.90
10051;DHT22;5065;46.942;7.432;2023-02-01T09:13:06;4.20;99.90
10051;DHT22;5065;46.942;7.432;2023-02-01T09:15:33;4.30;99.90
10051;DHT22;5065;46.942;7.432;2023-02-01T09:18:01;4.50;99.90
10051;DHT22;5065;46.942;7.432;2023-02-01T09:20:28;4.70;99.90
10051;DHT22;5065;46.942;7.432;2023-02-01T09:22:56;4.80;99.90
10051;DHT22;5065;46.942;7.432;2023-02-01T09:25:23;4.90;99.90
10051;DHT22;5065;46.942;7.432;2023-02-01T09:27:50;4.90;99.90
10051;DHT22;5065;46.942;7.432;2023-02-01T09:30:19;4.90;99.90
10051;DHT22;5065;46.942;7.432;2023-02-01T09:32:46;4.90;99.90
10051;DHT22;5065;46.942;7.432;2023-02-01T09:35:13;4.90;99.90
10051;DHT22;5065;46.942;7.432;2023-02-01T09:37:40;4.80;99.90
10051;DHT22;5065;46.942;7.432;2023-02-01T09:40:12;4.80;99.90
10051;DHT22;5065;46.942;7.432;2023-02-01T09:45:50;5.00;99.90
10051;DHT22;5065;46.942;7.432;2023-02-01T09:48:21;5.10;99.90
10051;DHT22;5065;46.942;7.432;2023-02-01T09:50:54;5.10;99.90
10051;DHT22;5065;46.942;7.432;2023-02-01T09:53:25;5.10;99.90
10051;DHT22;5065;46.942;7.432;2023-02-01T09:55:57;5.10;99.90
10051;DHT22;5065;46.942;7.432;2023-02-01T09:58:32;5.10;99.90
10051;DHT22;5065;46.942;7.432;2023-02-01T10:01:03;5.20;99.90
10051;DHT22;5065;46.942;7.432;2023-02-01T10:03:34;5.30;99.90
10051;DHT22;5065;46.942;7.432;2023-02-01T10:06:30;5.40;99.90
10051;DHT22;5065;46.942;7.432;2023-02-01T10:09:15;5.60;99.90
10051;DHT22;5065;46.942;7.432;2023-02-01T10:11:57;5.70;99.90
10051;DHT22;5065;46.942;7.432;2023-02-01T10:14:38;5.80;99.90
10051;DHT22;5065;46.942;7.432;2023-02-01T10:17:20;5.90;99.90
10051;DHT22;5065;46.942;7.432;2023-02-01T10:20:00;6.00;99.90
10051;DHT22;5065;46.942;7.432;2023-02-01T10:22:35;6.00;99.90
10051;DHT22;5065;46.942;7.432;2023-02-01T10:25:12;6.00;99.90
10051;DHT22;5065;46.942;7.432;2023-02-01T10:27:41;6.00;99.90
10051;DHT22;5065;46.942;7.432;2023-02-01T10:30:18;6.00;99.90
10051;DHT22;5065;46.942;7.432;2023-02-01T10:32:48;6.00;99.90
10051;DHT22;5065;46.942;7.432;2023-02-01T10:35:18;6.10;99.90
10051;DHT22;5065;46.942;7.432;2023-02-01T10:37:48;6.10;99.90
10051;DHT22;5065;46.942;7.432;2023-02-01T10:40:18;6.20;99.90
10051;DHT22;5065;46.942;7.432;2023-02-01T10:42:47;6.20;99.90
10051;DHT22;5065;46.942;7.432;2023-02-01T10:45:19;6.30;99.90
10051;DHT22;5065;46.942;7.432;2023-02-01T10:47:50;6.50;99.90
10051;DHT22;5065;46.942;7.432;2023-02-01T10:50:25;6.60;99.90
10051;DHT22;5065;46.942;7.432;2023-02-01T10:53:00;6.70;99.90
10051;DHT22;5065;46.942;7.432;2023-02-01T10:55:39;6.80;99.90
10051;DHT22;5065;46.942;7.432;2023-02-01T10:58:14;6.80;99.90
10051;DHT22;5065;46.942;7.432;2023-02-01T11:00:47;6.90;99.90
10051;DHT22;5065;46.942;7.432;2023-02-01T11:03:38;6.90;99.90
10051;DHT22;5065;46.942;7.432;2023-02-01T11:06:18;7.00;99.90
10051;DHT22;5065;46.942;7.432;2023-02-01T11:08:48;7.00;99.90
10051;DHT22;5065;46.942;7.432;2023-02-01T11:11:16;7.00;99.90
10051;DHT22;5065;46.942;7.432;2023-02-01T11:13:43;7.10;99.90
10051;DHT22;5065;46.942;7.432;2023-02-01T11:16:13;7.00;99.90
10051;DHT22;5065;46.942;7.432;2023-02-01T11:18:42;7.00;99.90
10051;DHT22;5065;46.942;7.432;2023-02-01T11:21:10;7.00;99.90
10051;DHT22;5065;46.942;7.432;2023-02-01T11:23:43;7.00;99.90
10051;DHT22;5065;46.942;7.432;2023-02-01T11:26:14;7.10;99.90
10051;DHT22;5065;46.942;7.432;2023-02-01T11:28:48;7.20;99.90
10051;DHT22;5065;46.942;7.432;2023-02-01T11:31:18;7.40;99.90
10051;DHT22;5065;46.942;7.432;2023-02-01T11:33:50;7.50;99.90
10051;DHT22;5065;46.942;7.432;2023-02-01T11:36:22;7.70;99.90
10051;DHT22;5065;46.942;7.432;2023-02-01T11:38:53;7.80;99.90
10051;DHT22;5065;46.942;7.432;2023-02-01T11:41:23;7.90;99.90
10051;DHT22;5065;46.942;7.432;2023-02-01T11:43:53;8.00;99.90
10051;DHT22;5065;46.942;7.432;2023-02-01T11:46:24;8.20;99.90
10051;DHT22;5065;46.942;7.432;2023-02-01T11:48:56;8.30;99.90
10051;DHT22;5065;46.942;7.432;2023-02-01T11:51:39;8.40;99.90
10051;DHT22;5065;46.942;7.432;2023-02-01T11:54:21;8.40;99.90
10051;DHT22;5065;46.942;7.432;2023-02-01T11:57:04;8.50;99.90
10051;DHT22;5065;46.942;7.432;2023-02-01T11:59:52;8.50;99.90
10051;DHT22;5065;46.942;7.432;2023-02-01T12:02:49;8.40;99.90
10051;DHT22;5065;46.942;7.432;2023-02-01T12:05:30;8.40;99.90
10051;DHT22;5065;46.942;7.432;2023-02-01T12:08:20;8.40;99.90
10051;DHT22;5065;46.942;7.432;2023-02-01T12:11:02;8.40;99.90
10051;DHT22;5065;46.942;7.432;2023-02-01T12:13:39;8.40;99.90
10051;DHT22;5065;46.942;7.432;2023-02-01T12:16:20;8.30;99.90
10051;DHT22;5065;46.942;7.432;2023-02-01T12:19:22;8.40;99.90
10051;DHT22;5065;46.942;7.432;2023-02-01T12:22:14;8.30;99.90
10051;DHT22;5065;46.942;7.432;2023-02-01T12:24:59;8.30;99.90
10051;DHT22;5065;46.942;7.432;2023-02-01T12:27:44;8.30;99.90
10051;DHT22;5065;46.942;7.432;2023-02-01T12:30:40;8.20;99.90
10051;DHT22;5065;46.942;7.432;2023-02-01T12:33:17;8.30;99.90
10051;DHT22;5065;46.942;7.432;2023-02-01T12:35:58;8.30;99.90
10051;DHT22;5065;46.942;7.432;2023-02-01T12:39:02;8.40;99.90
10051;DHT22;5065;46.942;7.432;2023-02-01T12:41:45;8.40;99.90
10051;DHT22;5065;46.942;7.432;2023-02-01T12:44:24;8.50;99.90
10051;DHT22;5065;46.942;7.432;2023-02-01T12:46:56;8.60;99.90
10051;DHT22;5065;46.942;7.432;2023-02-01T12:49:31;8.70;99.90
10051;DHT22;5065;46.942;7.432;2023-02-01T12:52:06;8.70;99.90
10051;DHT22;5065;46.942;7.432;2023-02-01T12:54:41;8.70;99.90
10051;DHT22;5065;46.942;7.432;2023-02-01T12:57:14;8.70;99.90
10051;DHT22;5065;46.942;7.432;2023-02-01T12:59:47;8.70;99.90
10051;DHT22;5065;46.942;7.432;2023-02-01T13:02:19;8.70;99.90
10051;DHT22;5065;46.942;7.432;2023-02-01T13:04:59;8.70;99.90
10051;DHT22;5065;46.942;7.432;2023-02-01T13:07:32;8.60;99.90
10051;DHT22;5065;46.942;7.432;2023-02-01T13:10:07;8.60;99.90
10051;DHT22;5065;46.942;7.432;2023-02-01T13:12:43;8.60;99.90
10051;DHT22;5065;46.942;7.432;2023-02-01T13:15:14;8.60;99.90
10051;DHT22;5065;46.942;7.432;2023-02-01T13:17:43;8.70;99.90
10051;DHT22;5065;46.942;7.432;2023-02-01T13:20:19;8.70;99.90
10051;DHT22;5065;46.942;7.432;2023-02-01T13:22:50;8.80;99.90
10051;DHT22;5065;46.942;7.432;2023-02-01T13:25:29;8.80;99.90
10051;DHT22;5065;46.942;7.432;2023-02-01T13:28:01;8.80;99.90
10051;DHT22;5065;46.942;7.432;2023-02-01T13:30:38;8.80;99.90
10051;DHT22;5065;46.942;7.432;2023-02-01T13:33:26;8.70;99.90
10051;DHT22;5065;46.942;7.432;2023-02-01T13:36:28;8.70;99.90
10051;DHT22;5065;46.942;7.432;2023-02-01T13:42:22;8.60;99.90
10051;DHT22;5065;46.942;7.432;2023-02-01T13:44:51;8.60;99.90
10051;DHT22;5065;46.942;7.432;2023-02-01T13:47:25;8.60;99.90
10051;DHT22;5065;46.942;7.432;2023-02-01T13:49:55;8.60;99.90
10051;DHT22;5065;46.942;7.432;2023-02-01T13:52:32;8.60;99.90
10051;DHT22;5065;46.942;7.432;2023-02-01T13:55:03;8.50;99.90
10051;DHT22;5065;46.942;7.432;2023-02-01T13:57:42;8.50;99.90
10051;DHT22;5065;46.942;7.432;2023-02-01T14:00:24;8.50;99.90
10051;DHT22;5065;46.942;7.432;2023-02-01T14:03:10;8.50;99.90
10051;DHT22;5065;46.942;7.432;2023-02-01T14:09:33;8.50;99.90
10051;DHT22;5065;46.942;7.432;2023-02-01T14:12:44;8.50;99.90
10051;DHT22;5065;46.942;7.432;2023-02-01T14:15:24;8.50;99.90
10051;DHT22;5065;46.942;7.432;2023-02-01T14:17:52;8.50;99.90
10051;DHT22;5065;46.942;7.432;2023-02-01T14:20:44;8.50;99.90
10051;DHT22;5065;46.942;7.432;2023-02-01T14:23:23;8.40;99.90
10051;DHT22;5065;46.942;7.432;2023-02-01T14:26:21;8.40;99.90
10051;DHT22;5065;46.942;7.432;2023-02-01T14:29:01;8.30;99.90
10051;DHT22;5065;46.942;7.432;2023-02-01T14:31:41;8.30;99.90
10051;DHT22;5065;46.942;7.432;2023-02-01T14:34:16;8.40;99.90
10051;DHT22;5065;46.942;7.432;2023-02-01T14:36:52;8.40;99.90
10051;DHT22;5065;46.942;7.432;2023-02-01T14:39:29;8.40;99.90
10051;DHT22;5065;46.942;7.432;2023-02-01T14:42:00;8.40;99.90
10051;DHT22;5065;46.942;7.432;2023-02-01T14:44:35;8.40;99.90
10051;DHT22;5065;46.942;7.432;2023-02-01T14:47:11;8.40;99.90
10051;DHT22;5065;46.942;7.432;2023-02-01T14:49:55;8.40;99.90
10051;DHT22;5065;46.942;7.432;2023-02-01T14:52:29;8.40;99.90
10051;DHT22;5065;46.942;7.432;2023-02-01T14:55:03;8.40;99.90
10051;DHT22;5065;46.942;7.432;2023-02-01T14:57:34;8.40;99.90
10051;DHT22;5065;46.942;7.432;2023-02-01T15:00:17;8.40;99.90
10051;DHT22;5065;46.942;7.432;2023-02-01T15:02:46;8.40;99.90
10051;DHT22;5065;46.942;7.432;2023-02-01T15:05:24;8.40;99.90
10051;DHT22;5065;46.942;7.432;2023-02-01T15:07:52;8.40;99.90
10051;DHT22;5065;46.942;7.432;2023-02-01T15:10:21;8.40;99.90
10051;DHT22;5065;46.942;7.432;2023-02-01T15:12:49;8.40;99.90
10051;DHT22;5065;46.942;7.432;2023-02-01T15:15:20;8.40;99.90
10051;DHT22;5065;46.942;7.432;2023-02-01T15:17:53;8.30;99.90
10051;DHT22;5065;46.942;7.432;2023-02-01T15:20:23;8.40;99.90
10051;DHT22;5065;46.942;7.432;2023-02-01T15:22:55;8.40;99.90
10051;DHT22;5065;46.942;7.432;2023-02-01T15:25:25;8.30;99.90
10051;DHT22;5065;46.942;7.432;2023-02-01T15:27:53;8.30;99.90
10051;DHT22;5065;46.942;7.432;2023-02-01T15:30:23;8.30;99.90
10051;DHT22;5065;46.942;7.432;2023-02-01T15:32:52;8.30;99.90
10051;DHT22;5065;46.942;7.432;2023-02-01T15:35:37;8.30;99.90
10051;DHT22;5065;46.942;7.432;2023-02-01T15:38:31;8.30;99.90
10051;DHT22;5065;46.942;7.432;2023-02-01T15:41:02;8.30;99.90
10051;DHT22;5065;46.942;7.432;2023-02-01T15:43:31;8.20;99.90
10051;DHT22;5065;46.942;7.432;2023-02-01T15:46:02;8.20;99.90
10051;DHT22;5065;46.942;7.432;2023-02-01T15:48:36;8.20;99.90
10051;DHT22;5065;46.942;7.432;2023-02-01T15:51:04;8.20;99.90
10051;DHT22;5065;46.942;7.432;2023-02-01T15:53:32;8.10;99.90
10051;DHT22;5065;46.942;7.432;2023-02-01T15:56:01;8.10;99.90
10051;DHT22;5065;46.942;7.432;2023-02-01T15:58:30;8.10;99.90
10051;DHT22;5065;46.942;7.432;2023-02-01T16:01:02;8.00;99.90
10051;DHT22;5065;46.942;7.432;2023-02-01T16:03:35;8.00;99.90
10051;DHT22;5065;46.942;7.432;2023-02-01T16:06:06;8.00;99.90
10051;DHT22;5065;46.942;7.432;2023-02-01T16:08:34;7.90;99.90
10051;DHT22;5065;46.942;7.432;2023-02-01T16:11:25;7.90;99.90
10051;DHT22;5065;46.942;7.432;2023-02-01T16:13:53;7.90;99.90
10051;DHT22;5065;46.942;7.432;2023-02-01T16:16:22;7.90;99.90
10051;DHT22;5065;46.942;7.432;2023-02-01T16:18:50;7.90;99.90
10051;DHT22;5065;46.942;7.432;2023-02-01T16:21:17;7.80;99.90
10051;DHT22;5065;46.942;7.432;2023-02-01T16:23:48;7.80;99.90
10051;DHT22;5065;46.942;7.432;2023-02-01T16:26:17;7.80;99.90
10051;DHT22;5065;46.942;7.432;2023-02-01T16:28:44;7.80;99.90
10051;DHT22;5065;46.942;7.432;2023-02-01T16:31:13;7.80;99.90
10051;DHT22;5065;46.942;7.432;2023-02-01T16:33:47;7.80;99.90
10051;DHT22;5065;46.942;7.432;2023-02-01T16:36:15;7.80;99.90
10051;DHT22;5065;46.942;7.432;2023-02-01T16:38:43;7.70;99.90
10051;DHT22;5065;46.942;7.432;2023-02-01T16:41:13;7.80;99.90
10051;DHT22;5065;46.942;7.432;2023-02-01T16:43:41;7.70;99.90
10051;DHT22;5065;46.942;7.432;2023-02-01T16:46:13;7.70;99.90
10051;DHT22;5065;46.942;7.432;2023-02-01T16:48:42;7.70;99.90
10051;DHT22;5065;46.942;7.432;2023-02-01T16:51:14;7.70;99.90
10051;DHT22;5065;46.942;7.432;2023-02-01T16:53:43;7.70;99.90
10051;DHT22;5065;46.942;7.432;2023-02-01T16:56:15;7.70;99.90
10051;DHT22;5065;46.942;7.432;2023-02-01T16:58:43;7.70;99.90